sensor_id;sensor_type;location;lat;lon;timestamp;temperature;humidity
64549;DHT22;49838;51.798;10.954;2023-04-03T00:00:33;6.90;45.30
64549;DHT22;49838;51.798;10.954;2023-04-03T00:03:01;6.90;45.30
64549;DHT22;49838;51.798;10.954;2023-04-03T00:05:29;6.90;45.30
64549;DHT22;49838;51.798;10.954;2023-04-03T00:07:57;6.90;45.50
64549;DHT22;49838;51.798;10.954;2023-04-03T00:10:24;6.90;45.40
64549;DHT22;49838;51.798;10.954;2023-04-03T00:12:51;6.90;45.40
64549;DHT22;49838;51.798;10.954;2023-04-03T00:15:18;6.80;45.30
64549;DHT22;49838;51.798;10.954;2023-04-03T00:17:45;6.80;45.50
64549;DHT22;49838;51.798;10.954;2023-04-03T00:20:13;6.80;45.50
64549;DHT22;49838;51.798;10.954;2023-04-03T00:22:41;6.80;45.50
64549;DHT22;49838;51.798;10.954;2023-04-03T00:25:09;6.80;45.50
64549;DHT22;49838;51.798;10.954;2023-04-03T00:27:36;6.80;45.50
64549;DHT22;49838;51.798;10.954;2023-04-03T00:30:05;6.80;45.50
64549;DHT22;49838;51.798;10.954;2023-04-03T00:32:34;6.70;45.50
64549;DHT22;49838;51.798;10.954;2023-04-03T00:35:01;6.70;45.50
64549;DHT22;49838;51.798;10.954;2023-04-03T00:37:29;6.70;45.50
64549;DHT22;49838;51.798;10.954;2023-04-03T00:39:57;6.70;45.60
64549;DHT22;49838;51.798;10.954;2023-04-03T00:42:25;6.70;45.60
64549;DHT22;49838;51.798;10.954;2023-04-03T00:47:51;6.70;45.70
64549;DHT22;49838;51.798;10.954;2023-04-03T00:50:18;6.70;45.70
64549;DHT22;49838;51.798;10.954;2023-04-03T00:52:45;6.60;45.60
64549;DHT22;49838;51.798;10.954;2023-04-03T00:55:16;6.60;45.60
64549;DHT22;49838;51.798;10.954;2023-04-03T00:57:43;6.60;45.60
64549;DHT22;49838;51.798;10.954;2023-04-03T01:00:14;6.60;45.70
64549;DHT22;49838;51.798;10.954;2023-04-03T01:05:21;6.60;45.70
64549;DHT22;49838;51.798;10.954;2023-04-03T01:07:49;6.70;45.80
64549;DHT22;49838;51.798;10.954;2023-04-03T01:10:20;6.70;45.80
64549;DHT22;49838;51.798;10.954;2023-04-03T01:12:49;6.60;46.30
64549;DHT22;49838;51.798;10.954;2023-04-03T01:15:17;6.70;45.80
64549;DHT22;49838;51.798;10.954;2023-04-03T01:17:46;6.70;45.80
64549;DHT22;49838;51.798;10.954;2023-04-03T01:23:36;6.60;45.80
64549;DHT22;49838;51.798;10.954;2023-04-03T01:26:16;6.60;45.80
64549;DHT22;49838;51.798;10.954;2023-04-03T01:28:44;6.60;45.90
64549;DHT22;49838;51.798;10.954;2023-04-03T01:31:13;6.60;45.80
64549;DHT22;49838;51.798;10.954;2023-04-03T01:33:48;6.60;45.90
64549;DHT22;49838;51.798;10.954;2023-04-03T01:36:16;6.50;45.90
64549;DHT22;49838;51.798;10.954;2023-04-03T01:38:46;6.50;45.90
64549;DHT22;49838;51.798;10.954;2023-04-03T01:41:13;6.50;45.90
64549;DHT22;49838;51.798;10.954;2023-04-03T01:43:41;6.50;45.90
64549;DHT22;49838;51.798;10.954;2023-04-03T01:46:09;6.60;46.00
64549;DHT22;49838;51.798;10.954;2023-04-03T01:48:36;6.60;46.00
64549;DHT22;49838;51.798;10.954;2023-04-03T01:51:05;6.60;46.00
64549;DHT22;49838;51.798;10.954;2023-04-03T01:53:32;6.60;46.00
64549;DHT22;49838;51.798;10.954;2023-04-03T01:56:00;6.60;46.00
64549;DHT22;49838;51.798;10.954;2023-04-03T01:58:27;6.50;45.90
64549;DHT22;49838;51.798;10.954;2023-04-03T02:00:54;6.60;45.90
64549;DHT22;49838;51.798;10.954;2023-04-03T02:03:21;6.50;45.90
64549;DHT22;49838;51.798;10.954;2023-04-03T02:05:49;6.50;46.00
64549;DHT22;49838;51.798;10.954;2023-04-03T02:08:18;6.50;46.00
64549;DHT22;49838;51.798;10.954;2023-04-03T02:10:46;6.50;46.00
64549;DHT22;49838;51.798;10.954;2023-04-03T02:13:14;6.50;46.00
64549;DHT22;49838;51.798;10.954;2023-04-03T02:15:41;6.50;46.00
64549;DHT22;49838;51.798;10.954;2023-04-03T02:18:09;6.50;46.70
64549;DHT22;49838;51.798;10.954;2023-04-03T02:20:36;6.50;46.00
64549;DHT22;49838;51.798;10.954;2023-04-03T02:23:04;6.50;46.10
64549;DHT22;49838;51.798;10.954;2023-04-03T02:25:33;6.50;46.10
64549;DHT22;49838;51.798;10.954;2023-04-03T02:28:00;6.50;46.10
64549;DHT22;49838;51.798;10.954;2023-04-03T02:30:28;6.40;46.00
64549;DHT22;49838;51.798;10.954;2023-04-03T02:32:55;6.40;46.10
64549;DHT22;49838;51.798;10.954;2023-04-03T02:35:22;6.40;46.10
64549;DHT22;49838;51.798;10.954;2023-04-03T02:37:50;6.40;46.10
64549;DHT22;49838;51.798;10.954;2023-04-03T02:40:17;6.40;46.10
64549;DHT22;49838;51.798;10.954;2023-04-03T02:42:46;6.40;46.10
64549;DHT22;49838;51.798;10.954;2023-04-03T02:45:13;6.40;46.10
64549;DHT22;49838;51.798;10.954;2023-04-03T02:47:40;6.40;46.10
64549;DHT22;49838;51.798;10.954;2023-04-03T02:50:08;6.30;46.10
64549;DHT22;49838;51.798;10.954;2023-04-03T02:52:35;6.30;46.10
64549;DHT22;49838;51.798;10.954;2023-04-03T02:55:03;6.40;46.10
64549;DHT22;49838;51.798;10.954;2023-04-03T02:57:31;6.40;46.10
64549;DHT22;49838;51.798;10.954;2023-04-03T02:59:59;6.30;46.10
64549;DHT22;49838;51.798;10.954;2023-04-03T03:02:26;6.30;46.10
64549;DHT22;49838;51.798;10.954;2023-04-03T03:04:54;6.30;46.10
64549;DHT22;49838;51.798;10.954;2023-04-03T03:07:21;6.30;46.30
64549;DHT22;49838;51.798;10.954;2023-04-03T03:09:48;6.30;46.10
64549;DHT22;49838;51.798;10.954;2023-04-03T03:12:16;6.20;46.10
64549;DHT22;49838;51.798;10.954;2023-04-03T03:14:47;6.20;46.10
64549;DHT22;49838;51.798;10.954;2023-04-03T03:17:16;6.20;46.20
64549;DHT22;49838;51.798;10.954;2023-04-03T03:19:43;6.20;46.10
64549;DHT22;49838;51.798;10.954;2023-04-03T03:22:11;6.20;46.10
64549;DHT22;49838;51.798;10.954;2023-04-03T03:24:38;6.20;46.20
64549;DHT22;49838;51.798;10.954;2023-04-03T03:27:06;6.20;46.20
64549;DHT22;49838;51.798;10.954;2023-04-03T03:29:33;6.20;46.20
64549;DHT22;49838;51.798;10.954;2023-04-03T03:32:00;6.20;46.20
64549;DHT22;49838;51.798;10.954;2023-04-03T03:34:29;6.10;46.10
64549;DHT22;49838;51.798;10.954;2023-04-03T03:36:56;6.10;46.10
64549;DHT22;49838;51.798;10.954;2023-04-03T03:39:23;6.10;46.10
64549;DHT22;49838;51.798;10.954;2023-04-03T03:41:51;6.10;46.10
64549;DHT22;49838;51.798;10.954;2023-04-03T03:44:19;6.10;46.10
64549;DHT22;49838;51.798;10.954;2023-04-03T03:46:46;6.10;46.20
64549;DHT22;49838;51.798;10.954;2023-04-03T03:49:14;6.00;46.10
64549;DHT22;49838;51.798;10.954;2023-04-03T03:51:43;6.00;46.10
64549;DHT22;49838;51.798;10.954;2023-04-03T03:54:10;6.00;46.10
64549;DHT22;49838;51.798;10.954;2023-04-03T03:56:37;6.00;46.10
64549;DHT22;49838;51.798;10.954;2023-04-03T03:59:05;5.80;45.90
64549;DHT22;49838;51.798;10.954;2023-04-03T04:01:33;5.90;46.10
64549;DHT22;49838;51.798;10.954;2023-04-03T04:04:00;5.90;46.10
64549;DHT22;49838;51.798;10.954;2023-04-03T04:06:27;5.90;46.10
64549;DHT22;49838;51.798;10.954;2023-04-03T04:08:56;5.90;46.10
64549;DHT22;49838;51.798;10.954;2023-04-03T04:11:23;5.80;46.10
64549;DHT22;49838;51.798;10.954;2023-04-03T04:13:51;5.80;46.10
64549;DHT22;49838;51.798;10.954;2023-04-03T04:16:18;5.80;46.10
64549;DHT22;49838;51.798;10.954;2023-04-03T04:18:45;5.70;46.10
64549;DHT22;49838;51.798;10.954;2023-04-03T04:21:12;5.80;46.20
64549;DHT22;49838;51.798;10.954;2023-04-03T04:23:39;5.80;46.20
64549;DHT22;49838;51.798;10.954;2023-04-03T04:26:08;5.80;46.20
64549;DHT22;49838;51.798;10.954;2023-04-03T04:28:35;5.80;46.10
64549;DHT22;49838;51.798;10.954;2023-04-03T04:31:03;5.70;46.10
64549;DHT22;49838;51.798;10.954;2023-04-03T04:33:30;5.70;46.10
64549;DHT22;49838;51.798;10.954;2023-04-03T04:35:57;5.70;46.10
64549;DHT22;49838;51.798;10.954;2023-04-03T04:38:25;5.70;46.10
64549;DHT22;49838;51.798;10.954;2023-04-03T04:40:52;5.70;46.70
64549;DHT22;49838;51.798;10.954;2023-04-03T04:43:21;5.70;46.00
64549;DHT22;49838;51.798;10.954;2023-04-03T04:45:48;5.70;46.10
64549;DHT22;49838;51.798;10.954;2023-04-03T04:48:15;5.70;46.10
64549;DHT22;49838;51.798;10.954;2023-04-03T04:50:43;5.60;46.00
64549;DHT22;49838;51.798;10.954;2023-04-03T04:53:10;5.70;46.10
64549;DHT22;49838;51.798;10.954;2023-04-03T04:55:37;5.70;46.20
64549;DHT22;49838;51.798;10.954;2023-04-03T04:58:04;5.80;46.20
64549;DHT22;49838;51.798;10.954;2023-04-03T05:00:33;5.90;46.20
64549;DHT22;49838;51.798;10.954;2023-04-03T05:03:00;5.90;46.20
64549;DHT22;49838;51.798;10.954;2023-04-03T05:05:28;6.00;46.20
64549;DHT22;49838;51.798;10.954;2023-04-03T05:07:55;6.00;46.20
64549;DHT22;49838;51.798;10.954;2023-04-03T05:10:22;6.10;46.20
64549;DHT22;49838;51.798;10.954;2023-04-03T05:12:50;6.10;46.20
64549;DHT22;49838;51.798;10.954;2023-04-03T05:15:17;6.10;46.20
64549;DHT22;49838;51.798;10.954;2023-04-03T05:17:45;6.20;46.30
64549;DHT22;49838;51.798;10.954;2023-04-03T05:20:13;6.20;46.30
64549;DHT22;49838;51.798;10.954;2023-04-03T05:22:40;6.30;46.30
64549;DHT22;49838;51.798;10.954;2023-04-03T05:25:08;6.40;46.40
64549;DHT22;49838;51.798;10.954;2023-04-03T05:27:35;6.50;46.40
64549;DHT22;49838;51.798;10.954;2023-04-03T05:30:03;6.60;46.40
64549;DHT22;49838;51.798;10.954;2023-04-03T05:32:31;6.80;46.70
64549;DHT22;49838;51.798;10.954;2023-04-03T05:35:00;7.10;46.90
64549;DHT22;49838;51.798;10.954;2023-04-03T05:37:28;7.30;46.80
64549;DHT22;49838;51.798;10.954;2023-04-03T05:39:55;7.50;46.90
64549;DHT22;49838;51.798;10.954;2023-04-03T05:42:22;7.90;47.50
64549;DHT22;49838;51.798;10.954;2023-04-03T05:44:49;8.40;47.90
64549;DHT22;49838;51.798;10.954;2023-04-03T05:47:17;9.10;47.80
64549;DHT22;49838;51.798;10.954;2023-04-03T05:49:44;9.70;47.70
64549;DHT22;49838;51.798;10.954;2023-04-03T05:52:17;10.40;46.90
64549;DHT22;49838;51.798;10.954;2023-04-03T05:54:48;11.00;46.90
64549;DHT22;49838;51.798;10.954;2023-04-03T05:57:15;11.60;46.80
64549;DHT22;49838;51.798;10.954;2023-04-03T05:59:44;12.00;46.10
64549;DHT22;49838;51.798;10.954;2023-04-03T06:02:12;12.40;46.40
64549;DHT22;49838;51.798;10.954;2023-04-03T06:04:41;12.80;46.10
64549;DHT22;49838;51.798;10.954;2023-04-03T06:07:09;13.20;44.80
64549;DHT22;49838;51.798;10.954;2023-04-03T06:09:40;13.40;44.70
64549;DHT22;49838;51.798;10.954;2023-04-03T06:12:08;13.70;43.50
64549;DHT22;49838;51.798;10.954;2023-04-03T06:14:36;13.90;44.30
64549;DHT22;49838;51.798;10.954;2023-04-03T06:17:04;14.20;44.80
64549;DHT22;49838;51.798;10.954;2023-04-03T06:19:32;14.50;43.10
64549;DHT22;49838;51.798;10.954;2023-04-03T06:21:59;14.70;45.30
64549;DHT22;49838;51.798;10.954;2023-04-03T06:24:27;15.00;44.50
64549;DHT22;49838;51.798;10.954;2023-04-03T06:26:55;15.30;44.30
64549;DHT22;49838;51.798;10.954;2023-04-03T06:29:23;15.60;44.70
64549;DHT22;49838;51.798;10.954;2023-04-03T06:31:50;15.80;44.60
64549;DHT22;49838;51.798;10.954;2023-04-03T06:34:18;16.10;44.20
64549;DHT22;49838;51.798;10.954;2023-04-03T06:36:46;16.30;45.00
64549;DHT22;49838;51.798;10.954;2023-04-03T06:39:15;16.60;44.00
64549;DHT22;49838;51.798;10.954;2023-04-03T06:41:43;16.90;45.30
64549;DHT22;49838;51.798;10.954;2023-04-03T06:44:12;17.10;44.60
64549;DHT22;49838;51.798;10.954;2023-04-03T06:46:42;17.40;45.10
64549;DHT22;49838;51.798;10.954;2023-04-03T06:49:11;17.60;43.70
64549;DHT22;49838;51.798;10.954;2023-04-03T06:51:38;17.80;44.10
64549;DHT22;49838;51.798;10.954;2023-04-03T06:54:05;18.00;45.20
64549;DHT22;49838;51.798;10.954;2023-04-03T06:56:34;18.40;45.70
64549;DHT22;49838;51.798;10.954;2023-04-03T06:59:02;18.80;46.00
64549;DHT22;49838;51.798;10.954;2023-04-03T07:01:31;19.10;44.50
64549;DHT22;49838;51.798;10.954;2023-04-03T07:03:58;19.40;45.40
64549;DHT22;49838;51.798;10.954;2023-04-03T07:06:25;19.60;45.40
64549;DHT22;49838;51.798;10.954;2023-04-03T07:08:53;19.80;44.80
64549;DHT22;49838;51.798;10.954;2023-04-03T07:11:21;19.80;43.40
64549;DHT22;49838;51.798;10.954;2023-04-03T07:13:49;19.90;43.60
64549;DHT22;49838;51.798;10.954;2023-04-03T07:16:17;20.10;43.00
64549;DHT22;49838;51.798;10.954;2023-04-03T07:18:46;20.10;41.30
64549;DHT22;49838;51.798;10.954;2023-04-03T07:21:13;20.10;41.00
64549;DHT22;49838;51.798;10.954;2023-04-03T07:23:41;20.00;41.00
64549;DHT22;49838;51.798;10.954;2023-04-03T07:26:08;20.00;38.20
64549;DHT22;49838;51.798;10.954;2023-04-03T07:28:35;19.90;38.70
64549;DHT22;49838;51.798;10.954;2023-04-03T07:31:05;20.00;39.90
64549;DHT22;49838;51.798;10.954;2023-04-03T07:33:34;20.20;39.60
64549;DHT22;49838;51.798;10.954;2023-04-03T07:36:04;20.40;38.80
64549;DHT22;49838;51.798;10.954;2023-04-03T07:38:33;20.40;36.80
64549;DHT22;49838;51.798;10.954;2023-04-03T07:41:01;20.30;37.90
64549;DHT22;49838;51.798;10.954;2023-04-03T07:43:29;20.30;38.00
64549;DHT22;49838;51.798;10.954;2023-04-03T07:45:56;20.50;39.60
64549;DHT22;49838;51.798;10.954;2023-04-03T07:48:24;20.50;40.60
64549;DHT22;49838;51.798;10.954;2023-04-03T07:50:53;20.70;39.70
64549;DHT22;49838;51.798;10.954;2023-04-03T07:53:22;20.50;38.90
64549;DHT22;49838;51.798;10.954;2023-04-03T07:55:49;20.40;39.10
64549;DHT22;49838;51.798;10.954;2023-04-03T07:58:21;20.40;39.50
64549;DHT22;49838;51.798;10.954;2023-04-03T08:00:48;20.40;40.30
64549;DHT22;49838;51.798;10.954;2023-04-03T08:03:16;20.70;41.90
64549;DHT22;49838;51.798;10.954;2023-04-03T08:05:44;21.20;41.50
64549;DHT22;49838;51.798;10.954;2023-04-03T08:08:12;21.60;42.10
64549;DHT22;49838;51.798;10.954;2023-04-03T08:10:43;22.10;42.70
64549;DHT22;49838;51.798;10.954;2023-04-03T08:13:10;22.50;42.10
64549;DHT22;49838;51.798;10.954;2023-04-03T08:15:37;22.50;40.90
64549;DHT22;49838;51.798;10.954;2023-04-03T08:18:05;22.50;41.30
64549;DHT22;49838;51.798;10.954;2023-04-03T08:20:32;22.70;41.70
64549;DHT22;49838;51.798;10.954;2023-04-03T08:22:59;23.10;42.50
64549;DHT22;49838;51.798;10.954;2023-04-03T08:25:26;23.50;41.80
64549;DHT22;49838;51.798;10.954;2023-04-03T08:27:56;23.80;40.20
64549;DHT22;49838;51.798;10.954;2023-04-03T08:30:23;24.00;39.40
64549;DHT22;49838;51.798;10.954;2023-04-03T08:32:51;23.90;39.70
64549;DHT22;49838;51.798;10.954;2023-04-03T08:35:19;23.50;39.00
64549;DHT22;49838;51.798;10.954;2023-04-03T08:37:46;23.10;36.10
64549;DHT22;49838;51.798;10.954;2023-04-03T08:40:14;22.50;36.00
64549;DHT22;49838;51.798;10.954;2023-04-03T08:42:46;21.60;32.00
64549;DHT22;49838;51.798;10.954;2023-04-03T08:45:25;20.70;31.90
64549;DHT22;49838;51.798;10.954;2023-04-03T08:48:00;19.90;31.20
64549;DHT22;49838;51.798;10.954;2023-04-03T08:50:34;19.20;31.90
64549;DHT22;49838;51.798;10.954;2023-04-03T08:53:05;18.60;32.00
64549;DHT22;49838;51.798;10.954;2023-04-03T08:55:39;18.00;32.20
64549;DHT22;49838;51.798;10.954;2023-04-03T08:58:10;17.50;32.90
64549;DHT22;49838;51.798;10.954;2023-04-03T09:00:45;17.10;33.00
64549;DHT22;49838;51.798;10.954;2023-04-03T09:03:15;16.80;32.20
64549;DHT22;49838;51.798;10.954;2023-04-03T09:05:45;16.60;33.00
64549;DHT22;49838;51.798;10.954;2023-04-03T09:08:21;16.30;33.80
64549;DHT22;49838;51.798;10.954;2023-04-03T09:10:52;16.00;34.70
64549;DHT22;49838;51.798;10.954;2023-04-03T09:13:30;15.80;34.30
64549;DHT22;49838;51.798;10.954;2023-04-03T09:16:10;15.60;34.10
64549;DHT22;49838;51.798;10.954;2023-04-03T09:18:48;15.40;34.30
64549;DHT22;49838;51.798;10.954;2023-04-03T09:21:25;15.20;33.90
64549;DHT22;49838;51.798;10.954;2023-04-03T09:23:59;15.00;34.30
64549;DHT22;49838;51.798;10.954;2023-04-03T09:26:28;14.80;33.70
64549;DHT22;49838;51.798;10.954;2023-04-03T09:29:01;14.60;34.20
64549;DHT22;49838;51.798;10.954;2023-04-03T09:31:35;14.40;34.40
64549;DHT22;49838;51.798;10.954;2023-04-03T09:34:05;14.30;33.50
64549;DHT22;49838;51.798;10.954;2023-04-03T09:36:39;14.00;32.70
64549;DHT22;49838;51.798;10.954;2023-04-03T09:39:10;13.90;32.70
64549;DHT22;49838;51.798;10.954;2023-04-03T09:41:39;13.70;31.90
64549;DHT22;49838;51.798;10.954;2023-04-03T09:44:17;13.40;32.00
64549;DHT22;49838;51.798;10.954;2023-04-03T09:46:49;13.30;32.20
64549;DHT22;49838;51.798;10.954;2023-04-03T09:49:16;13.20;32.40
64549;DHT22;49838;51.798;10.954;2023-04-03T09:51:44;13.20;32.40
64549;DHT22;49838;51.798;10.954;2023-04-03T09:57:01;13.20;32.40
64549;DHT22;49838;51.798;10.954;2023-04-03T09:59:31;13.10;33.30
64549;DHT22;49838;51.798;10.954;2023-04-03T10:02:02;13.10;32.10
64549;DHT22;49838;51.798;10.954;2023-04-03T10:04:40;13.10;32.00
64549;DHT22;49838;51.798;10.954;2023-04-03T10:07:27;13.10;32.60
64549;DHT22;49838;51.798;10.954;2023-04-03T10:09:57;13.10;32.30
64549;DHT22;49838;51.798;10.954;2023-04-03T10:12:25;13.00;32.30
64549;DHT22;49838;51.798;10.954;2023-04-03T10:14:56;13.10;31.90
64549;DHT22;49838;51.798;10.954;2023-04-03T10:17:32;13.50;32.70
64549;DHT22;49838;51.798;10.954;2023-04-03T10:20:15;13.90;32.90
64549;DHT22;49838;51.798;10.954;2023-04-03T10:22:59;14.00;32.10
64549;DHT22;49838;51.798;10.954;2023-04-03T10:25:32;14.00;31.70
64549;DHT22;49838;51.798;10.954;2023-04-03T10:28:06;13.90;31.80
64549;DHT22;49838;51.798;10.954;2023-04-03T10:30:42;13.70;31.90
64549;DHT22;49838;51.798;10.954;2023-04-03T10:33:20;13.60;31.50
64549;DHT22;49838;51.798;10.954;2023-04-03T10:35:57;13.50;31.10
64549;DHT22;49838;51.798;10.954;2023-04-03T10:38:40;13.30;31.00
64549;DHT22;49838;51.798;10.954;2023-04-03T10:41:15;13.20;31.60
64549;DHT22;49838;51.798;10.954;2023-04-03T10:43:49;13.00;30.00
64549;DHT22;49838;51.798;10.954;2023-04-03T10:46:23;12.80;29.70
64549;DHT22;49838;51.798;10.954;2023-04-03T10:49:01;12.70;30.20
64549;DHT22;49838;51.798;10.954;2023-04-03T10:51:39;12.70;31.00
64549;DHT22;49838;51.798;10.954;2023-04-03T10:54:11;12.60;31.30
64549;DHT22;49838;51.798;10.954;2023-04-03T10:56:45;12.60;31.00
64549;DHT22;49838;51.798;10.954;2023-04-03T10:59:16;12.70;31.20
64549;DHT22;49838;51.798;10.954;2023-04-03T11:01:51;12.60;31.00
64549;DHT22;49838;51.798;10.954;2023-04-03T11:04:24;12.60;30.50
64549;DHT22;49838;51.798;10.954;2023-04-03T11:06:55;12.60;30.60
64549;DHT22;49838;51.798;10.954;2023-04-03T11:09:27;12.70;31.10
64549;DHT22;49838;51.798;10.954;2023-04-03T11:11:58;12.70;31.40
64549;DHT22;49838;51.798;10.954;2023-04-03T11:14:31;12.60;30.90
64549;DHT22;49838;51.798;10.954;2023-04-03T11:17:05;12.60;31.30
64549;DHT22;49838;51.798;10.954;2023-04-03T11:19:44;12.50;31.30
64549;DHT22;49838;51.798;10.954;2023-04-03T11:22:16;12.60;31.60
64549;DHT22;49838;51.798;10.954;2023-04-03T11:24:53;12.60;31.90
64549;DHT22;49838;51.798;10.954;2023-04-03T11:27:26;12.70;31.60
64549;DHT22;49838;51.798;10.954;2023-04-03T11:29:58;12.80;31.30
64549;DHT22;49838;51.798;10.954;2023-04-03T11:32:34;12.80;31.10
64549;DHT22;49838;51.798;10.954;2023-04-03T11:35:20;12.80;31.50
64549;DHT22;49838;51.798;10.954;2023-04-03T11:37:49;12.90;31.60
64549;DHT22;49838;51.798;10.954;2023-04-03T11:40:20;12.80;31.10
64549;DHT22;49838;51.798;10.954;2023-04-03T11:42:52;12.90;31.40
64549;DHT22;49838;51.798;10.954;2023-04-03T11:45:32;12.90;31.00
64549;DHT22;49838;51.798;10.954;2023-04-03T11:48:03;12.80;30.50
64549;DHT22;49838;51.798;10.954;2023-04-03T11:50:41;12.80;30.70
64549;DHT22;49838;51.798;10.954;2023-04-03T11:59:21;12.70;30.10
64549;DHT22;49838;51.798;10.954;2023-04-03T12:01:51;12.70;31.10
64549;DHT22;49838;51.798;10.954;2023-04-03T12:04:20;12.70;31.10
64549;DHT22;49838;51.798;10.954;2023-04-03T12:09:57;12.60;30.90
64549;DHT22;49838;51.798;10.954;2023-04-03T12:12:30;12.80;31.30
64549;DHT22;49838;51.798;10.954;2023-04-03T12:15:12;13.00;31.30
64549;DHT22;49838;51.798;10.954;2023-04-03T12:17:56;13.40;31.80
64549;DHT22;49838;51.798;10.954;2023-04-03T12:23:25;13.40;30.10
64549;DHT22;49838;51.798;10.954;2023-04-03T12:25:59;13.20;29.50
64549;DHT22;49838;51.798;10.954;2023-04-03T12:28:38;13.20;30.00
64549;DHT22;49838;51.798;10.954;2023-04-03T12:31:07;13.30;30.50
64549;DHT22;49838;51.798;10.954;2023-04-03T12:33:41;13.50;30.50
64549;DHT22;49838;51.798;10.954;2023-04-03T12:36:25;13.70;30.60
64549;DHT22;49838;51.798;10.954;2023-04-03T12:39:02;13.80;31.00
64549;DHT22;49838;51.798;10.954;2023-04-03T12:41:43;13.90;30.00
64549;DHT22;49838;51.798;10.954;2023-04-03T12:44:30;13.80;29.50
64549;DHT22;49838;51.798;10.954;2023-04-03T12:47:08;13.80;29.80
64549;DHT22;49838;51.798;10.954;2023-04-03T12:49:49;13.60;29.50
64549;DHT22;49838;51.798;10.954;2023-04-03T12:52:18;13.50;29.70
64549;DHT22;49838;51.798;10.954;2023-04-03T12:54:52;13.40;29.50
64549;DHT22;49838;51.798;10.954;2023-04-03T12:57:20;13.30;29.50
64549;DHT22;49838;51.798;10.954;2023-04-03T12:59:51;13.30;29.80
64549;DHT22;49838;51.798;10.954;2023-04-03T13:02:20;13.20;30.10
64549;DHT22;49838;51.798;10.954;2023-04-03T13:04:50;13.30;31.00
64549;DHT22;49838;51.798;10.954;2023-04-03T13:07:19;13.30;30.60
64549;DHT22;49838;51.798;10.954;2023-04-03T13:09:57;13.30;30.80
64549;DHT22;49838;51.798;10.954;2023-04-03T13:12:26;13.30;30.40
64549;DHT22;49838;51.798;10.954;2023-04-03T13:14:54;13.50;30.40
64549;DHT22;49838;51.798;10.954;2023-04-03T13:17:24;13.70;30.10
64549;DHT22;49838;51.798;10.954;2023-04-03T13:19:51;13.90;29.80
64549;DHT22;49838;51.798;10.954;2023-04-03T13:22:23;13.80;29.00
64549;DHT22;49838;51.798;10.954;2023-04-03T13:24:55;13.70;29.10
64549;DHT22;49838;51.798;10.954;2023-04-03T13:27:28;13.70;30.00
64549;DHT22;49838;51.798;10.954;2023-04-03T13:29:58;13.60;30.00
64549;DHT22;49838;51.798;10.954;2023-04-03T13:32:28;13.70;30.60
64549;DHT22;49838;51.798;10.954;2023-04-03T13:34:58;13.60;30.50
64549;DHT22;49838;51.798;10.954;2023-04-03T13:37:27;13.70;30.60
64549;DHT22;49838;51.798;10.954;2023-04-03T13:39:59;13.80;29.90
64549;DHT22;49838;51.798;10.954;2023-04-03T13:42:30;13.80;29.60
64549;DHT22;49838;51.798;10.954;2023-04-03T13:45:09;13.80;29.70
64549;DHT22;49838;51.798;10.954;2023-04-03T13:47:38;13.80;30.30
64549;DHT22;49838;51.798;10.954;2023-04-03T13:50:15;13.80;29.30
64549;DHT22;49838;51.798;10.954;2023-04-03T13:52:52;13.70;29.90
64549;DHT22;49838;51.798;10.954;2023-04-03T13:55:23;13.80;29.40
64549;DHT22;49838;51.798;10.954;2023-04-03T13:57:52;13.70;28.90
64549;DHT22;49838;51.798;10.954;2023-04-03T14:00:27;13.70;29.50
64549;DHT22;49838;51.798;10.954;2023-04-03T14:03:01;13.60;30.10
64549;DHT22;49838;51.798;10.954;2023-04-03T14:05:28;13.60;29.80
64549;DHT22;49838;51.798;10.954;2023-04-03T14:07:58;13.50;30.00
64549;DHT22;49838;51.798;10.954;2023-04-03T14:10:27;13.50;29.70
64549;DHT22;49838;51.798;10.954;2023-04-03T14:12:54;13.40;29.60
64549;DHT22;49838;51.798;10.954;2023-04-03T14:15:22;13.30;30.20
64549;DHT22;49838;51.798;10.954;2023-04-03T14:17:53;13.30;30.20
64549;DHT22;49838;51.798;10.954;2023-04-03T14:20:23;13.30;30.00
64549;DHT22;49838;51.798;10.954;2023-04-03T14:22:52;13.30;29.70
64549;DHT22;49838;51.798;10.954;2023-04-03T14:25:20;13.30;29.90
64549;DHT22;49838;51.798;10.954;2023-04-03T14:27:51;13.30;30.20
64549;DHT22;49838;51.798;10.954;2023-04-03T14:30:20;13.30;30.40
64549;DHT22;49838;51.798;10.954;2023-04-03T14:32:50;13.20;29.90
64549;DHT22;49838;51.798;10.954;2023-04-03T14:35:18;13.20;29.90
64549;DHT22;49838;51.798;10.954;2023-04-03T14:37:46;13.20;30.00
64549;DHT22;49838;51.798;10.954;2023-04-03T14:40:19;13.20;29.90
64549;DHT22;49838;51.798;10.954;2023-04-03T14:42:52;13.20;30.10
64549;DHT22;49838;51.798;10.954;2023-04-03T14:45:21;13.20;29.50
64549;DHT22;49838;51.798;10.954;2023-04-03T14:47:50;13.10;29.70
64549;DHT22;49838;51.798;10.954;2023-04-03T14:50:21;13.10;30.20
64549;DHT22;49838;51.798;10.954;2023-04-03T14:52:53;13.10;30.00
64549;DHT22;49838;51.798;10.954;2023-04-03T14:55:26;13.00;29.80
64549;DHT22;49838;51.798;10.954;2023-04-03T14:57:56;13.10;29.70
64549;DHT22;49838;51.798;10.954;2023-04-03T15:00:23;13.00;29.20
64549;DHT22;49838;51.798;10.954;2023-04-03T15:02:51;13.00;29.30
64549;DHT22;49838;51.798;10.954;2023-04-03T15:05:18;13.00;29.40
64549;DHT22;49838;51.798;10.954;2023-04-03T15:07:47;13.00;29.80
64549;DHT22;49838;51.798;10.954;2023-04-03T15:10:23;13.00;29.50
64549;DHT22;49838;51.798;10.954;2023-04-03T15:12:51;12.90;29.00
64549;DHT22;49838;51.798;10.954;2023-04-03T15:15:21;12.90;29.40
64549;DHT22;49838;51.798;10.954;2023-04-03T15:17:51;12.90;29.60
64549;DHT22;49838;51.798;10.954;2023-04-03T15:20:21;12.90;29.60
64549;DHT22;49838;51.798;10.954;2023-04-03T15:22:49;12.90;30.00
64549;DHT22;49838;51.798;10.954;2023-04-03T15:25:17;12.90;30.20
64549;DHT22;49838;51.798;10.954;2023-04-03T15:27:45;12.90;29.70
64549;DHT22;49838;51.798;10.954;2023-04-03T15:30:17;12.80;29.30
64549;DHT22;49838;51.798;10.954;2023-04-03T15:32:47;12.80;29.40
64549;DHT22;49838;51.798;10.954;2023-04-03T15:35:16;12.80;29.20
64549;DHT22;49838;51.798;10.954;2023-04-03T15:37:44;12.80;29.60
64549;DHT22;49838;51.798;10.954;2023-04-03T15:40:14;12.80;29.70
64549;DHT22;49838;51.798;10.954;2023-04-03T15:42:42;12.80;29.90
64549;DHT22;49838;51.798;10.954;2023-04-03T15:45:09;12.80;29.60
64549;DHT22;49838;51.798;10.954;2023-04-03T15:47:37;12.80;29.80
64549;DHT22;49838;51.798;10.954;2023-04-03T15:50:06;12.70;30.20
64549;DHT22;49838;51.798;10.954;2023-04-03T15:52:34;12.40;29.70
64549;DHT22;49838;51.798;10.954;2023-04-03T15:55:02;12.70;29.80
64549;DHT22;49838;51.798;10.954;2023-04-03T15:57:31;12.50;29.30
64549;DHT22;49838;51.798;10.954;2023-04-03T15:59:58;12.50;29.50
64549;DHT22;49838;51.798;10.954;2023-04-03T16:02:25;12.50;29.60